createdAt,value
2024-01-11T00:00:20.696Z,11.10
2024-01-11T00:03:00.595Z,10.73
2024-01-11T00:05:30.483Z,11.03
2024-01-11T00:08:26.795Z,10.33
2024-01-11T00:11:13.318Z,10.30
2024-01-11T00:13:52.373Z,10.40
2024-01-11T00:16:37.643Z,10.23
2024-01-11T00:19:15.000Z,10.60
2024-01-11T00:21:58.456Z,10.83
2024-01-11T00:24:59.209Z,11.07
2024-01-11T00:27:44.699Z,10.57
2024-01-11T00:30:35.194Z,9.83
2024-01-11T00:33:32.740Z,10.70
2024-01-11T00:36:18.417Z,10.60
2024-01-11T00:38:59.439Z,10.03
2024-01-11T00:41:55.304Z,10.77
2024-01-11T00:44:40.070Z,10.70
2024-01-11T00:47:16.359Z,10.00
2024-01-11T00:49:57.456Z,9.60
2024-01-11T00:52:42.571Z,9.43
2024-01-11T00:55:31.613Z,10.47
2024-01-11T00:58:43.657Z,10.33
2024-01-11T01:01:33.944Z,10.47
2024-01-11T01:04:27.964Z,10.07
2024-01-11T01:07:07.638Z,10.10
2024-01-11T01:09:50.705Z,9.97
2024-01-11T01:12:27.893Z,10.27
2024-01-11T01:15:08.108Z,9.27
2024-01-11T01:18:04.634Z,10.43
2024-01-11T01:20:49.918Z,9.77
2024-01-11T01:23:47.066Z,10.33
2024-01-11T01:26:52.687Z,9.70
2024-01-11T01:29:48.805Z,10.37
2024-01-11T01:33:06.203Z,9.43
2024-01-11T01:35:54.999Z,9.90
2024-01-11T01:38:30.326Z,10.17
2024-01-11T01:41:27.536Z,9.60
2024-01-11T01:44:23.881Z,10.10
2024-01-11T01:47:19.584Z,9.50
2024-01-11T01:50:21.239Z,10.37
2024-01-11T01:53:05.499Z,10.03
2024-01-11T01:55:41.424Z,9.67
2024-01-11T01:58:24.966Z,9.93
2024-01-11T02:00:55.668Z,9.17
2024-01-11T02:03:38.091Z,10.23
2024-01-11T02:06:18.879Z,9.80
2024-01-11T02:09:09.311Z,9.93
2024-01-11T02:12:06.850Z,9.67
2024-01-11T02:14:53.071Z,9.33
2024-01-11T02:17:43.015Z,9.77
2024-01-11T02:20:37.134Z,9.73
2024-01-11T02:23:51.655Z,9.33
2024-01-11T02:26:48.432Z,9.10
2024-01-11T02:29:23.782Z,9.50
2024-01-11T02:32:09.677Z,9.87
2024-01-11T02:35:06.185Z,8.30
2024-01-11T02:37:58.706Z,9.40
2024-01-11T02:40:44.476Z,9.13
2024-01-11T02:43:34.938Z,8.67
2024-01-11T02:46:27.213Z,8.57
2024-01-11T02:49:23.118Z,9.37
2024-01-11T02:52:13.508Z,9.23
2024-01-11T02:55:11.102Z,8.77
2024-01-11T02:57:52.201Z,8.23
2024-01-11T03:00:53.465Z,8.77
2024-01-11T03:03:40.950Z,9.20
2024-01-11T03:06:25.341Z,8.63
2024-01-11T03:09:05.945Z,9.43
2024-01-11T03:11:55.642Z,9.17
2024-01-11T03:15:01.947Z,8.67
2024-01-11T03:17:53.558Z,8.67
2024-01-11T03:20:50.941Z,8.97
2024-01-11T03:23:47.119Z,9.07
2024-01-11T03:26:38.081Z,8.87
2024-01-11T03:29:23.326Z,8.53
2024-01-11T03:32:19.921Z,8.80
2024-01-11T03:35:00.840Z,8.50
2024-01-11T03:37:45.053Z,8.40
2024-01-11T03:40:25.911Z,8.80
2024-01-11T03:43:02.494Z,8.57
2024-01-11T03:45:49.182Z,9.27
2024-01-11T03:48:44.851Z,8.53
2024-01-11T03:52:01.423Z,8.63
2024-01-11T03:54:58.848Z,8.40
2024-01-11T03:57:56.546Z,9.13
2024-01-11T04:00:47.820Z,9.20
2024-01-11T04:03:31.081Z,8.73
2024-01-11T04:06:28.966Z,9.27
2024-01-11T04:09:19.281Z,8.87
2024-01-11T04:12:04.725Z,8.63
2024-01-11T04:14:57.238Z,8.63
2024-01-11T04:17:30.282Z,9.10
2024-01-11T04:20:26.551Z,9.27
2024-01-11T04:23:12.064Z,9.00
2024-01-11T04:26:10.887Z,8.77
2024-01-11T04:28:44.256Z,9.03
2024-01-11T04:31:25.124Z,8.57
2024-01-11T04:34:13.925Z,9.13
2024-01-11T04:36:58.714Z,8.67
2024-01-11T04:39:36.058Z,8.27
2024-01-11T04:42:29.997Z,8.40
2024-01-11T04:45:10.330Z,8.80
2024-01-11T04:48:07.855Z,8.87
2024-01-11T04:50:59.074Z,8.67
2024-01-11T04:53:48.408Z,9.23
2024-01-11T04:56:33.984Z,9.03
2024-01-11T04:59:22.099Z,9.03
2024-01-11T05:02:19.292Z,8.87
2024-01-11T05:05:06.182Z,8.93
2024-01-11T05:07:56.756Z,9.20
2024-01-11T05:10:55.892Z,9.60
2024-01-11T05:13:55.368Z,8.77
2024-01-11T05:16:46.899Z,8.80
2024-01-11T05:19:23.619Z,8.53
2024-01-11T05:22:10.997Z,8.67
2024-01-11T05:24:53.891Z,9.07
2024-01-11T05:27:34.528Z,8.73
2024-01-11T05:30:17.718Z,9.30
2024-01-11T05:33:23.161Z,9.47
2024-01-11T05:36:11.078Z,8.67
2024-01-11T05:39:04.301Z,8.73
2024-01-11T05:42:02.711Z,10.10
2024-01-11T05:45:03.127Z,8.73
2024-01-11T05:47:53.753Z,9.13
2024-01-11T05:50:57.824Z,8.67
2024-01-11T05:53:43.167Z,9.40
2024-01-11T05:56:24.942Z,9.63
2024-01-11T05:59:05.954Z,9.67
2024-01-11T06:01:49.990Z,10.00
2024-01-11T06:04:39.481Z,8.57
2024-01-11T06:07:45.798Z,9.67
2024-01-11T06:10:27.980Z,8.80
2024-01-11T06:13:22.061Z,10.00
2024-01-11T06:16:15.396Z,9.27
2024-01-11T06:18:46.624Z,8.93
2024-01-11T06:21:27.553Z,9.30
2024-01-11T06:24:28.804Z,9.97
2024-01-11T06:26:59.563Z,10.57
2024-01-11T06:29:30.246Z,9.63
2024-01-11T06:32:10.709Z,9.67
2024-01-11T06:34:58.258Z,9.67
2024-01-11T06:37:48.685Z,9.43
2024-01-11T06:40:44.415Z,10.10
2024-01-11T06:43:44.990Z,9.57
2024-01-11T06:46:41.339Z,9.03
2024-01-11T06:49:24.700Z,8.67
2024-01-11T06:51:57.312Z,9.73
2024-01-11T06:54:39.555Z,9.50
2024-01-11T06:57:37.335Z,9.57
2024-01-11T07:00:29.464Z,9.00
2024-01-11T07:03:28.545Z,9.60
2024-01-11T07:06:17.581Z,9.40
2024-01-11T07:09:14.911Z,8.73
2024-01-11T07:12:06.844Z,9.50
2024-01-11T07:15:11.652Z,9.33
2024-01-11T07:18:01.657Z,9.03
2024-01-11T07:20:54.672Z,9.63
2024-01-11T07:23:38.922Z,9.53
2024-01-11T07:26:08.820Z,9.10
2024-01-11T07:29:04.406Z,9.43
2024-01-11T07:31:49.213Z,9.07
2024-01-11T07:34:31.009Z,9.37
2024-01-11T07:37:32.008Z,9.83
2024-01-11T07:40:12.410Z,9.80
2024-01-11T07:43:10.863Z,9.50
2024-01-11T07:46:00.806Z,9.73
2024-01-11T07:48:53.563Z,9.43
2024-01-11T07:51:29.152Z,9.83
2024-01-11T07:54:04.652Z,9.27
2024-01-11T07:56:51.558Z,9.47
2024-01-11T07:59:37.562Z,10.30
2024-01-11T08:02:07.612Z,9.63
2024-01-11T08:05:11.561Z,9.60
2024-01-11T08:08:13.929Z,9.77
2024-01-11T08:10:45.728Z,10.10
2024-01-11T08:13:27.718Z,9.70
2024-01-11T08:16:00.610Z,9.60
2024-01-11T08:18:52.330Z,9.23
2024-01-11T08:21:35.996Z,9.73
2024-01-11T08:24:28.778Z,9.57
2024-01-11T08:26:59.830Z,9.93
2024-01-11T08:29:52.222Z,10.13
2024-01-11T08:32:41.289Z,9.13
2024-01-11T08:35:32.501Z,10.20
2024-01-11T08:38:13.268Z,10.07
2024-01-11T08:41:00.157Z,9.27
2024-01-11T08:43:36.173Z,10.70
2024-01-11T08:46:07.783Z,10.03
2024-01-11T08:49:05.178Z,9.23
2024-01-11T08:52:08.018Z,10.20
2024-01-11T08:55:08.985Z,10.73
2024-01-11T08:58:05.954Z,10.67
2024-01-11T09:01:08.950Z,10.60
2024-01-11T09:03:44.826Z,10.83
2024-01-11T09:06:49.984Z,11.50
2024-01-11T09:09:53.810Z,12.03
2024-01-11T09:12:37.624Z,13.00
2024-01-11T09:15:27.002Z,13.17
2024-01-11T09:18:17.172Z,15.53
2024-01-11T09:21:22.001Z,14.27
2024-01-11T09:24:04.173Z,12.77
2024-01-11T09:26:45.701Z,15.03
2024-01-11T09:29:21.902Z,14.33
2024-01-11T09:32:05.168Z,16.60
2024-01-11T09:34:47.447Z,15.97
2024-01-11T09:37:32.444Z,15.43
2024-01-11T09:40:27.525Z,16.17
2024-01-11T09:43:21.172Z,15.60
2024-01-11T09:46:03.748Z,17.67
2024-01-11T09:49:37.061Z,17.90
2024-01-11T09:52:13.989Z,21.73
2024-01-11T09:54:54.163Z,20.07
2024-01-11T09:57:45.976Z,20.37
2024-01-11T10:00:21.423Z,20.43
2024-01-11T10:03:06.646Z,21.00
2024-01-11T10:05:50.155Z,21.47
2024-01-11T10:08:36.233Z,22.23
2024-01-11T10:11:17.921Z,21.63
2024-01-11T10:14:02.263Z,21.07
2024-01-11T10:16:44.852Z,20.53
2024-01-11T10:19:17.299Z,18.17
2024-01-11T10:22:06.514Z,18.70
2024-01-11T10:24:47.069Z,18.77
2024-01-11T10:27:40.312Z,17.53
2024-01-11T10:30:14.883Z,17.37
2024-01-11T10:33:05.000Z,17.10
2024-01-11T10:35:45.665Z,17.23
2024-01-11T10:39:08.300Z,17.27
2024-01-11T10:42:11.478Z,16.37
2024-01-11T10:44:52.453Z,16.47
2024-01-11T10:47:36.558Z,16.47
2024-01-11T10:50:31.184Z,15.80
2024-01-11T10:53:24.792Z,15.27
2024-01-11T10:56:20.730Z,14.77
2024-01-11T10:59:18.276Z,15.80
2024-01-11T11:02:17.330Z,14.77
2024-01-11T11:05:02.762Z,15.03
2024-01-11T11:07:52.068Z,15.30
2024-01-11T11:10:39.851Z,13.90
2024-01-11T11:13:21.343Z,13.57
2024-01-11T11:16:33.167Z,13.40
2024-01-11T11:19:20.243Z,14.50
2024-01-11T11:22:22.795Z,13.83
2024-01-11T11:25:24.469Z,14.00
2024-01-11T11:28:09.830Z,14.00
2024-01-11T11:31:05.048Z,14.37
2024-01-11T11:34:06.776Z,13.93
2024-01-11T11:37:05.292Z,13.33
2024-01-11T11:39:59.212Z,13.23
2024-01-11T11:42:31.350Z,13.40
2024-01-11T11:45:49.121Z,13.30
2024-01-11T11:49:11.538Z,13.00
2024-01-11T11:52:11.013Z,15.03
2024-01-11T11:55:10.708Z,13.63
2024-01-11T11:57:52.164Z,13.00
2024-01-11T12:00:52.264Z,13.87
2024-01-11T12:03:33.165Z,13.10
2024-01-11T12:06:17.514Z,15.53
2024-01-11T12:09:04.879Z,14.70
2024-01-11T12:11:57.999Z,14.20
2024-01-11T12:14:48.684Z,13.37
2024-01-11T12:17:35.730Z,13.93
2024-01-11T12:20:24.189Z,13.83
2024-01-11T12:23:15.680Z,15.23
2024-01-11T12:26:32.062Z,13.40
2024-01-11T12:29:17.247Z,13.47
2024-01-11T12:31:57.975Z,13.73
2024-01-11T12:34:33.220Z,14.40
2024-01-11T12:37:07.040Z,14.03
2024-01-11T12:39:58.776Z,14.17
2024-01-11T12:42:40.845Z,14.97
2024-01-11T12:45:28.787Z,14.30
2024-01-11T12:48:22.077Z,13.87
2024-01-11T12:51:05.960Z,14.03
2024-01-11T12:53:50.440Z,14.13
2024-01-11T12:56:28.240Z,13.37
2024-01-11T12:59:41.345Z,14.37
2024-01-11T13:02:38.641Z,13.50
2024-01-11T13:05:34.314Z,13.70
2024-01-11T13:08:30.585Z,13.60
2024-01-11T13:11:04.334Z,14.43
2024-01-11T13:13:43.017Z,12.83
2024-01-11T13:16:40.166Z,12.43
2024-01-11T13:19:24.068Z,12.07
2024-01-11T13:22:36.754Z,13.57
2024-01-11T13:25:25.482Z,12.63
2024-01-11T13:28:16.827Z,12.63
2024-01-11T13:31:11.305Z,12.57
2024-01-11T13:34:12.362Z,12.20
2024-01-11T13:37:03.034Z,12.20
2024-01-11T13:39:39.439Z,11.30
2024-01-11T13:42:25.238Z,12.10
2024-01-11T13:44:55.431Z,11.87
2024-01-11T13:47:25.080Z,11.13
2024-01-11T13:50:06.031Z,12.07
2024-01-11T13:52:50.954Z,12.10
2024-01-11T13:55:54.649Z,10.97
2024-01-11T13:58:48.408Z,12.03
2024-01-11T14:01:39.474Z,11.67
2024-01-11T14:04:25.001Z,11.03
2024-01-11T14:07:36.032Z,10.73
2024-01-11T14:10:30.629Z,11.70
2024-01-11T14:13:14.616Z,11.47
2024-01-11T14:16:00.688Z,11.40
2024-01-11T14:18:38.144Z,10.77
2024-01-11T14:21:21.173Z,10.53
2024-01-11T14:24:07.144Z,10.70
2024-01-11T14:26:42.573Z,11.40
2024-01-11T14:29:12.787Z,11.87
2024-01-11T14:32:05.001Z,11.80
2024-01-11T14:35:06.887Z,10.33
2024-01-11T14:37:56.175Z,11.37
2024-01-11T14:41:01.631Z,11.37
2024-01-11T14:43:59.111Z,10.53
2024-01-11T14:46:59.622Z,10.43
2024-01-11T14:49:30.812Z,10.10
2024-01-11T14:52:15.102Z,10.70
2024-01-11T14:55:07.037Z,10.60
2024-01-11T14:57:55.129Z,10.30
2024-01-11T15:00:56.550Z,10.67
2024-01-11T15:03:48.609Z,10.47
2024-01-11T15:06:53.469Z,10.57
2024-01-11T15:09:47.125Z,10.37
2024-01-11T15:12:42.113Z,10.00
2024-01-11T15:15:29.493Z,10.00
2024-01-11T15:18:12.018Z,10.57
2024-01-11T15:20:44.018Z,10.17
2024-01-11T15:23:33.105Z,9.80
2024-01-11T15:26:14.718Z,12.43
2024-01-11T15:28:57.736Z,13.43
2024-01-11T15:32:13.966Z,14.03
2024-01-11T15:34:50.052Z,14.00
2024-01-11T15:37:27.176Z,13.00
2024-01-11T15:40:01.358Z,13.90
2024-01-11T15:42:35.665Z,14.27
2024-01-11T15:45:17.546Z,15.37
2024-01-11T15:48:00.864Z,15.90
2024-01-11T15:50:54.267Z,15.23
2024-01-11T15:53:46.908Z,62.13
2024-01-11T15:56:31.363Z,220.70
2024-01-11T15:59:12.413Z,141.47
2024-01-11T16:01:51.410Z,115.47
2024-01-11T16:04:30.745Z,47.73
2024-01-11T16:07:00.502Z,42.10
2024-01-11T16:09:53.977Z,36.13
2024-01-11T16:12:29.367Z,27.13
2024-01-11T16:15:30.778Z,22.63
2024-01-11T16:18:19.080Z,19.90
2024-01-11T16:21:11.255Z,21.50
2024-01-11T16:23:53.527Z,19.07
2024-01-11T16:26:31.870Z,18.70
2024-01-11T16:29:19.700Z,19.03
2024-01-11T16:32:08.500Z,17.93
2024-01-11T16:34:56.229Z,18.73
2024-01-11T16:37:35.888Z,20.00
2024-01-11T16:40:31.389Z,19.83
2024-01-11T16:43:15.557Z,21.97
2024-01-11T16:46:00.848Z,19.43
2024-01-11T16:48:49.683Z,19.80
2024-01-11T16:51:31.560Z,19.77
2024-01-11T16:54:13.629Z,19.43
2024-01-11T16:57:01.831Z,19.00
2024-01-11T16:59:33.095Z,17.73
2024-01-11T17:02:22.579Z,19.10
2024-01-11T17:05:11.660Z,17.47
2024-01-11T17:07:57.279Z,17.80
2024-01-11T17:10:38.486Z,18.27
2024-01-11T17:13:23.493Z,16.53
2024-01-11T17:16:06.098Z,16.70
2024-01-11T17:18:51.500Z,15.60
2024-01-11T17:21:37.028Z,15.77
2024-01-11T17:24:26.219Z,17.13
2024-01-11T17:27:31.165Z,15.00
2024-01-11T17:30:11.882Z,15.67
2024-01-11T17:33:04.890Z,15.00
2024-01-11T17:35:47.030Z,16.00
2024-01-11T17:38:27.129Z,15.10
2024-01-11T17:41:10.273Z,14.83
2024-01-11T17:44:27.753Z,14.67
2024-01-11T17:47:05.167Z,13.90
2024-01-11T17:49:53.489Z,14.07
2024-01-11T17:52:24.018Z,13.90
2024-01-11T17:55:00.062Z,14.73
2024-01-11T17:57:36.817Z,14.37
2024-01-11T18:00:26.541Z,14.13
2024-01-11T18:03:15.494Z,13.90
2024-01-11T18:05:57.461Z,13.60
2024-01-11T18:08:34.784Z,13.67
2024-01-11T18:11:32.361Z,14.13
2024-01-11T18:14:31.930Z,14.23
2024-01-11T18:17:57.907Z,14.27
2024-01-11T18:21:21.893Z,13.60
2024-01-11T18:24:17.127Z,13.63
2024-01-11T18:27:12.836Z,13.20
2024-01-11T18:30:13.591Z,14.13
2024-01-11T18:33:07.664Z,13.87
2024-01-11T18:36:21.614Z,13.43
2024-01-11T18:39:06.177Z,13.53
2024-01-11T18:42:05.118Z,13.80
2024-01-11T18:44:46.771Z,13.40
2024-01-11T18:47:32.942Z,13.73
2024-01-11T18:50:29.509Z,13.73
2024-01-11T18:53:13.043Z,13.60
2024-01-11T18:56:09.143Z,13.90
2024-01-11T18:58:48.983Z,13.97
2024-01-11T19:01:31.090Z,14.30
2024-01-11T19:04:17.715Z,13.70
2024-01-11T19:07:11.711Z,13.37
2024-01-11T19:09:53.800Z,13.63
2024-01-11T19:12:25.470Z,13.40
2024-01-11T19:15:22.964Z,13.47
2024-01-11T19:17:54.123Z,13.83
2024-01-11T19:20:37.696Z,13.03
2024-01-11T19:23:27.078Z,13.97
2024-01-11T19:26:23.268Z,12.80
2024-01-11T19:29:09.760Z,14.20
2024-01-11T19:32:01.168Z,12.97
2024-01-11T19:34:58.196Z,13.27
2024-01-11T19:37:54.943Z,13.83
2024-01-11T19:40:31.420Z,14.23
2024-01-11T19:43:12.241Z,13.37
2024-01-11T19:45:43.090Z,13.13
2024-01-11T19:48:25.593Z,13.70
2024-01-11T19:51:19.249Z,13.40
2024-01-11T19:54:13.058Z,13.63
2024-01-11T19:57:04.242Z,13.33
2024-01-11T20:00:00.609Z,13.30
2024-01-11T20:03:00.606Z,13.93
2024-01-11T20:06:11.812Z,14.20
2024-01-11T20:08:59.976Z,13.47
2024-01-11T20:12:07.384Z,14.10
2024-01-11T20:15:00.138Z,13.67
2024-01-11T20:17:42.074Z,14.77
2024-01-11T20:20:19.971Z,14.13
2024-01-11T20:22:52.597Z,13.93
2024-01-11T20:25:51.488Z,13.77
2024-01-11T20:28:37.215Z,13.80
2024-01-11T20:31:23.333Z,13.80
2024-01-11T20:34:18.550Z,13.13
2024-01-11T20:37:15.356Z,13.07
2024-01-11T20:40:11.420Z,13.87
2024-01-11T20:42:47.362Z,13.77
2024-01-11T20:45:33.395Z,15.00
2024-01-11T20:48:20.576Z,14.27
2024-01-11T20:51:07.893Z,13.40
2024-01-11T20:53:59.280Z,13.07
2024-01-11T20:57:01.546Z,14.00
2024-01-11T20:59:47.521Z,14.73
2024-01-11T21:02:44.914Z,13.27
2024-01-11T21:05:44.904Z,14.23
2024-01-11T21:08:21.902Z,15.07
2024-01-11T21:11:20.592Z,13.73
2024-01-11T21:14:05.832Z,14.03
2024-01-11T21:16:54.926Z,14.73
2024-01-11T21:19:50.118Z,13.43
2024-01-11T21:22:50.458Z,14.07
2024-01-11T21:25:29.254Z,13.87
2024-01-11T21:28:15.602Z,13.63
2024-01-11T21:31:00.527Z,13.43
2024-01-11T21:33:58.052Z,13.73
2024-01-11T21:36:41.678Z,13.67
2024-01-11T21:39:36.011Z,13.57
2024-01-11T21:42:33.857Z,13.77
2024-01-11T21:45:23.112Z,14.97
2024-01-11T21:47:57.931Z,15.10
2024-01-11T21:50:42.068Z,14.17
2024-01-11T21:53:31.263Z,14.63
2024-01-11T21:56:14.473Z,13.67
2024-01-11T21:59:03.311Z,14.40
2024-01-11T22:02:07.703Z,14.07
2024-01-11T22:05:21.392Z,13.67
2024-01-11T22:08:22.493Z,13.23
2024-01-11T22:11:05.821Z,13.77
2024-01-11T22:13:57.352Z,14.37
2024-01-11T22:16:53.625Z,13.57
2024-01-11T22:19:47.142Z,14.20
2024-01-11T22:22:38.607Z,14.67
2024-01-11T22:25:35.348Z,14.40
2024-01-11T22:28:16.951Z,12.97
2024-01-11T22:31:11.358Z,14.50
2024-01-11T22:33:45.183Z,15.00
2024-01-11T22:36:34.263Z,14.47
2024-01-11T22:39:17.883Z,14.40
2024-01-11T22:42:02.885Z,13.80
2024-01-11T22:45:01.810Z,15.03
2024-01-11T22:47:50.614Z,14.00
2024-01-11T22:50:48.966Z,14.83
2024-01-11T22:53:35.110Z,14.10
2024-01-11T22:56:56.752Z,13.60
2024-01-11T22:59:53.422Z,13.23
2024-01-11T23:02:29.057Z,13.40
2024-01-11T23:05:19.087Z,12.90
2024-01-11T23:07:59.216Z,12.87
2024-01-11T23:10:38.895Z,13.27
2024-01-11T23:13:25.789Z,12.63
2024-01-11T23:16:21.342Z,12.73
2024-01-11T23:19:17.962Z,12.70
2024-01-11T23:22:04.506Z,12.43
2024-01-11T23:24:43.632Z,12.23
2024-01-11T23:27:36.649Z,11.87
2024-01-11T23:30:53.655Z,13.17
2024-01-11T23:33:53.265Z,12.17
2024-01-11T23:36:44.753Z,11.93
2024-01-11T23:39:35.503Z,12.47
2024-01-11T23:42:18.209Z,11.43
2024-01-11T23:44:56.911Z,12.03
2024-01-11T23:47:28.761Z,12.20
2024-01-11T23:50:18.792Z,11.47
2024-01-11T23:53:03.808Z,11.80
2024-01-11T23:55:35.755Z,11.63
2024-01-11T23:58:19.636Z,11.77
